Time;durP1;ratioP1;P1;durP2;ratioP2;P2;SDS_P1;SDS_P2;PMS_P1;PMS_P2;Temp;Humidity;BMP_temperature;BMP_pressure;BME280_temperature;BME280_humidity;BME280_pressure;Samples;Min_cycle;Max_cycle;Signal;HPM_P1;HPM_P2
2022/05/30 00:00:51;;;;;;;7.33;4.70;;;13.80;99.90;;;;;;5077769;28;20216;-69
2022/05/30 00:03:19;;;;;;;9.87;5.50;;;13.80;99.90;;;;;;5070599;28;20201;-69
2022/05/30 00:05:49;;;;;;;9.43;5.70;;;13.80;99.90;;;;;;5076679;28;20666;-68
2022/05/30 00:08:19;;;;;;;6.67;5.47;;;13.70;99.90;;;;;;5076843;28;20237;-68
2022/05/30 00:10:46;;;;;;;8.33;5.37;;;13.70;99.90;;;;;;5070499;28;20638;-68
2022/05/30 00:13:14;;;;;;;7.50;5.50;;;13.70;99.90;;;;;;5083531;28;20645;-68
2022/05/30 00:15:41;;;;;;;8.03;5.73;;;13.70;99.90;;;;;;5079648;28;20236;-68
2022/05/30 00:18:09;;;;;;;8.53;5.30;;;13.70;99.90;;;;;;5076396;28;20206;-68
2022/05/30 00:20:37;;;;;;;8.20;5.40;;;13.70;99.90;;;;;;5077052;28;20220;-69
2022/05/30 00:23:06;;;;;;;8.20;5.80;;;13.70;99.90;;;;;;5074729;28;20665;-68
2022/05/30 00:25:33;;;;;;;9.17;5.90;;;13.70;99.90;;;;;;5074880;28;20276;-69
2022/05/30 00:28:00;;;;;;;6.70;5.07;;;13.70;99.90;;;;;;5076776;28;20692;-69
2022/05/30 00:30:27;;;;;;;8.80;6.10;;;13.70;99.90;;;;;;5078616;28;20320;-68
2022/05/30 00:32:54;;;;;;;7.53;5.43;;;13.70;99.90;;;;;;5076494;28;20248;-68
2022/05/30 00:35:21;;;;;;;9.10;5.63;;;13.60;99.90;;;;;;5076692;28;20236;-69
2022/05/30 00:37:47;;;;;;;8.83;6.27;;;13.70;99.90;;;;;;5078608;28;20208;-69
2022/05/30 00:40:16;;;;;;;9.53;5.63;;;13.70;99.90;;;;;;5075539;28;20202;-68
2022/05/30 00:42:43;;;;;;;8.97;6.00;;;13.70;99.90;;;;;;5076624;28;20247;-71
2022/05/30 00:45:11;;;;;;;8.97;6.07;;;13.70;99.90;;;;;;5077192;28;20289;-68
2022/05/30 00:47:38;;;;;;;10.20;5.60;;;13.70;99.90;;;;;;5077984;28;20236;-68
2022/05/30 00:50:07;;;;;;;6.40;5.13;;;13.70;99.90;;;;;;5077196;28;20653;-68
2022/05/30 00:52:38;;;;;;;7.93;5.30;;;13.60;99.90;;;;;;5070840;28;20213;-69
2022/05/30 00:55:08;;;;;;;9.20;5.80;;;13.60;99.90;;;;;;5075673;28;20288;-69
2022/05/30 00:57:38;;;;;;;9.33;5.53;;;13.60;99.90;;;;;;5076295;28;20655;-69
2022/05/30 01:00:10;;;;;;;7.43;5.27;;;13.60;99.90;;;;;;5075386;28;20206;-68
2022/05/30 01:02:39;;;;;;;9.13;5.73;;;13.60;99.90;;;;;;5076647;28;20284;-69
2022/05/30 01:07:53;;;;;;;6.83;5.20;;;13.60;99.90;;;;;;5086835;28;20209;-69
2022/05/30 01:10:22;;;;;;;9.17;5.73;;;13.70;99.90;;;;;;5067088;28;20319;-68
2022/05/30 01:12:53;;;;;;;7.17;5.67;;;13.60;99.90;;;;;;5075324;28;20201;-68
2022/05/30 01:15:22;;;;;;;7.60;5.13;;;13.60;99.90;;;;;;5070287;28;20229;-68
2022/05/30 01:17:55;;;;;;;7.70;5.47;;;13.60;99.90;;;;;;5065660;28;20626;-69
2022/05/30 01:20:31;;;;;;;10.43;5.43;;;13.60;99.90;;;;;;5075060;28;20661;-68
2022/05/30 01:23:31;;;;;;;8.30;5.33;;;13.50;99.90;;;;;;5073402;28;20200;-68
2022/05/30 01:26:27;;;;;;;8.03;5.50;;;13.50;99.90;;;;;;5067080;28;20204;-68
2022/05/30 01:29:01;;;;;;;7.87;5.23;;;13.50;99.90;;;;;;5051695;28;20229;-69
2022/05/30 01:31:29;;;;;;;9.20;5.40;;;13.50;99.90;;;;;;5072639;28;20371;-68
2022/05/30 01:33:56;;;;;;;8.93;5.20;;;13.50;99.90;;;;;;5072498;28;20300;-69
2022/05/30 01:36:23;;;;;;;8.87;5.77;;;13.50;99.90;;;;;;5070228;28;20201;-69
2022/05/30 01:38:50;;;;;;;7.13;5.50;;;13.50;99.90;;;;;;5075686;28;20653;-68
2022/05/30 01:41:18;;;;;;;6.67;5.73;;;13.50;99.90;;;;;;5075319;28;20237;-68
2022/05/30 01:43:45;;;;;;;9.30;6.47;;;13.50;99.90;;;;;;5065772;28;20650;-69
2022/05/30 01:46:16;;;;;;;8.17;5.90;;;13.50;99.90;;;;;;5075507;28;20205;-68
2022/05/30 01:48:44;;;;;;;8.53;6.57;;;13.50;99.90;;;;;;5073851;28;20205;-69
2022/05/30 01:51:11;;;;;;;8.50;6.33;;;13.50;99.90;;;;;;5072392;28;20221;-68
2022/05/30 01:53:38;;;;;;;9.47;6.43;;;13.50;99.90;;;;;;5073904;28;20296;-68
2022/05/30 01:56:05;;;;;;;9.43;6.47;;;13.50;99.90;;;;;;5063164;28;20217;-68
2022/05/30 01:58:32;;;;;;;9.27;6.67;;;13.40;99.90;;;;;;5071701;28;20214;-68
2022/05/30 02:00:59;;;;;;;7.77;6.20;;;13.40;99.90;;;;;;5072346;28;20198;-68
2022/05/30 02:03:28;;;;;;;8.63;6.20;;;13.40;99.90;;;;;;5073734;28;20237;-68
2022/05/30 02:05:54;;;;;;;8.30;5.93;;;13.40;99.90;;;;;;5075238;28;20584;-68
2022/05/30 02:08:21;;;;;;;8.47;6.80;;;13.40;99.90;;;;;;5074282;28;20243;-69
2022/05/30 02:10:49;;;;;;;7.60;6.33;;;13.30;99.90;;;;;;5073291;28;20641;-68
2022/05/30 02:13:15;;;;;;;11.90;6.13;;;13.30;99.90;;;;;;5071941;28;20236;-68
2022/05/30 02:18:28;;;;;;;6.93;5.67;;;13.30;99.90;;;;;;5059797;28;20649;-68
2022/05/30 02:20:55;;;;;;;9.80;6.50;;;13.30;99.90;;;;;;5066955;28;20270;-68
2022/05/30 02:23:21;;;;;;;9.73;6.80;;;13.30;99.90;;;;;;5078212;28;20283;-69
2022/05/30 02:25:49;;;;;;;9.17;6.07;;;13.40;99.90;;;;;;5074076;28;20209;-69
2022/05/30 02:28:16;;;;;;;6.60;5.90;;;13.30;99.90;;;;;;5074841;28;20209;-69
2022/05/30 02:30:42;;;;;;;11.30;6.87;;;13.30;99.90;;;;;;5073740;28;20225;-68
2022/05/30 02:38:40;;;;;;;9.37;6.10;;;13.20;99.90;;;;;;5070400;28;20224;-68
2022/05/30 02:41:06;;;;;;;9.07;6.10;;;13.10;99.90;;;;;;5074582;28;20644;-68
2022/05/30 02:43:33;;;;;;;8.57;6.10;;;13.10;99.90;;;;;;5072526;28;20300;-68
2022/05/30 02:46:00;;;;;;;8.13;5.53;;;13.10;99.90;;;;;;5073273;28;20235;-68
2022/05/30 02:48:27;;;;;;;6.93;5.57;;;13.10;99.90;;;;;;5071706;28;20701;-68
2022/05/30 02:50:55;;;;;;;6.40;5.30;;;13.20;99.90;;;;;;5067855;28;20229;-68
2022/05/30 02:53:24;;;;;;;6.83;4.93;;;13.20;99.90;;;;;;5073019;28;20299;-68
2022/05/30 02:55:51;;;;;;;7.87;6.03;;;13.20;99.90;;;;;;5074585;28;20209;-69
2022/05/30 02:58:18;;;;;;;7.90;5.40;;;13.20;99.90;;;;;;5074648;28;20680;-68
2022/05/30 03:00:45;;;;;;;9.80;6.03;;;13.20;99.90;;;;;;5074056;28;20212;-68
2022/05/30 03:03:12;;;;;;;10.30;5.77;;;13.20;99.90;;;;;;5066493;28;20929;-67
2022/05/30 03:05:39;;;;;;;7.83;5.60;;;13.30;99.90;;;;;;5073747;28;20213;-68
2022/05/30 03:08:09;;;;;;;7.23;4.70;;;13.20;99.90;;;;;;5073024;28;20231;-69
2022/05/30 03:10:36;;;;;;;6.37;5.10;;;13.20;99.90;;;;;;5072060;28;20288;-68
2022/05/30 03:13:03;;;;;;;6.43;4.83;;;13.10;99.90;;;;;;5071798;28;20233;-68
2022/05/30 03:15:30;;;;;;;5.80;4.57;;;13.10;99.90;;;;;;5073732;28;20481;-67
2022/05/30 03:17:57;;;;;;;4.73;3.80;;;13.10;99.90;;;;;;5069858;28;20207;-68
2022/05/30 03:20:24;;;;;;;5.63;3.77;;;13.10;99.90;;;;;;5073081;28;20210;-68
2022/05/30 03:22:51;;;;;;;7.97;4.17;;;13.00;99.90;;;;;;5069323;28;20214;-68
2022/05/30 03:25:20;;;;;;;7.67;3.80;;;13.00;99.90;;;;;;5069857;28;20244;-68
2022/05/30 03:27:47;;;;;;;8.13;4.13;;;13.00;99.90;;;;;;5072554;28;20213;-69
2022/05/30 03:30:15;;;;;;;5.07;3.87;;;13.00;99.90;;;;;;5073804;28;20964;-68
2022/05/30 03:32:43;;;;;;;5.40;3.53;;;13.00;99.90;;;;;;5073174;28;20225;-69
2022/05/30 03:35:11;;;;;;;5.37;3.40;;;13.00;99.90;;;;;;5071884;28;20206;-69
2022/05/30 03:37:40;;;;;;;7.73;3.60;;;13.00;99.90;;;;;;5070145;28;20228;-68
2022/05/30 03:40:09;;;;;;;5.00;3.63;;;13.00;99.90;;;;;;5073541;28;20716;-69
2022/05/30 03:42:37;;;;;;;5.87;3.80;;;13.00;99.90;;;;;;5063666;28;20205;-68
2022/05/30 03:45:05;;;;;;;8.20;3.60;;;13.10;99.90;;;;;;5073405;28;20300;-67
2022/05/30 03:47:37;;;;;;;4.73;3.20;;;13.10;99.90;;;;;;5062059;28;20660;-68
2022/05/30 03:50:05;;;;;;;4.67;3.40;;;13.20;99.90;;;;;;5069008;28;20232;-69
2022/05/30 03:52:32;;;;;;;5.07;3.67;;;13.20;99.90;;;;;;5073239;28;20654;-69
2022/05/30 03:54:58;;;;;;;6.30;3.40;;;13.10;99.90;;;;;;5073436;28;20232;-69
2022/05/30 03:57:25;;;;;;;4.70;3.97;;;13.20;99.90;;;;;;5073287;28;20206;-68
2022/05/30 03:59:53;;;;;;;8.07;3.90;;;13.20;99.90;;;;;;5074408;28;20879;-68
2022/05/30 04:02:20;;;;;;;5.03;3.70;;;13.20;99.90;;;;;;5073187;28;20201;-69
2022/05/30 04:04:47;;;;;;;8.07;4.53;;;13.20;99.90;;;;;;5069031;28;20348;-68
2022/05/30 04:07:15;;;;;;;4.23;3.40;;;13.20;99.90;;;;;;5073773;28;20214;-68
2022/05/30 04:09:42;;;;;;;4.53;3.27;;;13.20;99.90;;;;;;5071774;28;20212;-68
2022/05/30 04:12:10;;;;;;;6.30;3.40;;;13.20;99.90;;;;;;5075261;28;20600;-68
2022/05/30 04:14:37;;;;;;;5.37;3.17;;;13.20;99.90;;;;;;5068670;28;20551;-68
2022/05/30 04:17:05;;;;;;;3.27;2.93;;;13.30;99.90;;;;;;5065987;28;20834;-69
2022/05/30 04:19:32;;;;;;;4.60;3.27;;;13.30;99.90;;;;;;5070611;28;20214;-68
2022/05/30 04:22:00;;;;;;;5.27;3.47;;;13.40;99.90;;;;;;5077457;28;20197;-68
2022/05/30 04:24:28;;;;;;;5.47;3.30;;;13.30;99.90;;;;;;5076490;28;20300;-68
2022/05/30 04:26:56;;;;;;;5.87;3.67;;;13.30;99.90;;;;;;5078834;28;20205;-69
2022/05/30 04:29:22;;;;;;;4.00;3.10;;;13.30;99.90;;;;;;5077157;28;20320;-68
2022/05/30 04:31:49;;;;;;;3.43;2.97;;;13.30;99.90;;;;;;5076853;28;20312;-69
2022/05/30 04:34:18;;;;;;;3.17;2.80;;;13.30;99.90;;;;;;5075988;28;20236;-68
2022/05/30 04:36:44;;;;;;;4.40;3.00;;;13.30;99.90;;;;;;5073913;28;20228;-69
2022/05/30 04:39:11;;;;;;;4.13;2.90;;;13.20;99.90;;;;;;5070834;28;20219;-68
2022/05/30 04:41:38;;;;;;;4.53;3.23;;;13.20;99.90;;;;;;5076394;28;20209;-68
2022/05/30 04:44:05;;;;;;;4.10;3.70;;;13.20;99.90;;;;;;5067449;28;20588;-68
2022/05/30 04:46:32;;;;;;;4.40;3.30;;;13.10;99.90;;;;;;5076187;28;20288;-68
2022/05/30 04:48:59;;;;;;;3.60;3.30;;;13.10;99.90;;;;;;5079795;28;20657;-68
2022/05/30 04:51:28;;;;;;;5.57;3.87;;;13.00;99.90;;;;;;5079854;28;20316;-69
2022/05/30 04:53:55;;;;;;;4.17;3.40;;;13.00;99.90;;;;;;5076421;28;20235;-69
2022/05/30 04:56:21;;;;;;;3.97;3.30;;;13.00;99.90;;;;;;5068096;28;20233;-68
2022/05/30 04:58:49;;;;;;;4.27;3.20;;;13.00;99.90;;;;;;5075892;28;20220;-68
2022/05/30 05:01:16;;;;;;;6.67;3.97;;;13.00;99.90;;;;;;5069181;28;20237;-69
2022/05/30 05:03:44;;;;;;;5.27;3.73;;;13.00;99.90;;;;;;5072095;28;20237;-69
2022/05/30 05:06:13;;;;;;;6.63;3.77;;;13.00;99.90;;;;;;5069229;28;20212;-69
2022/05/30 05:08:49;;;;;;;4.77;3.83;;;13.10;99.90;;;;;;5075558;28;20215;-69
2022/05/30 05:11:22;;;;;;;7.53;3.87;;;13.00;99.90;;;;;;5081853;28;20676;-69
2022/05/30 05:13:49;;;;;;;5.90;3.90;;;12.70;99.90;;;;;;5083525;28;20210;-69
2022/05/30 05:16:18;;;;;;;8.60;4.50;;;13.00;99.90;;;;;;5085532;28;20328;-69
2022/05/30 05:18:45;;;;;;;6.20;4.57;;;12.90;99.90;;;;;;5091627;28;20213;-68
2022/05/30 05:21:17;;;;;;;4.27;3.80;;;12.90;99.90;;;;;;5083710;28;20666;-69
2022/05/30 05:23:46;;;;;;;5.87;4.30;;;12.90;99.90;;;;;;5073316;28;20208;-68
2022/05/30 05:26:13;;;;;;;4.87;4.37;;;12.90;99.90;;;;;;5080761;28;20204;-69
2022/05/30 05:28:40;;;;;;;5.70;4.83;;;12.80;99.90;;;;;;5087892;28;20303;-69
2022/05/30 05:31:08;;;;;;;7.30;6.07;;;12.80;99.90;;;;;;5086567;28;20620;-68
2022/05/30 05:33:35;;;;;;;6.67;5.90;;;12.80;99.90;;;;;;5090497;28;20368;-68
2022/05/30 05:36:03;;;;;;;5.70;5.10;;;12.80;99.90;;;;;;5092952;28;20201;-68
2022/05/30 05:38:31;;;;;;;7.73;5.20;;;12.80;99.90;;;;;;5082243;28;20210;-70
2022/05/30 05:40:59;;;;;;;8.80;5.63;;;12.80;99.90;;;;;;5073100;28;20236;-68
2022/05/30 05:43:26;;;;;;;6.63;4.93;;;12.70;99.90;;;;;;5070263;28;20209;-69
2022/05/30 05:45:52;;;;;;;5.80;5.00;;;12.70;99.90;;;;;;5074878;28;20323;-68
2022/05/30 05:48:19;;;;;;;6.33;5.50;;;12.80;99.90;;;;;;5068362;28;20240;-68
2022/05/30 05:50:46;;;;;;;8.07;5.80;;;12.70;99.90;;;;;;5074493;28;20293;-68
2022/05/30 05:53:13;;;;;;;6.37;5.37;;;12.70;99.90;;;;;;5073089;28;20657;-71
2022/05/30 05:55:40;;;;;;;7.50;6.10;;;12.60;99.90;;;;;;5077767;28;20235;-69
2022/05/30 05:58:08;;;;;;;10.67;6.93;;;12.70;99.90;;;;;;5078124;28;20268;-68
2022/05/30 06:00:36;;;;;;;8.90;6.53;;;12.70;99.90;;;;;;5082290;28;20304;-69
2022/05/30 06:03:03;;;;;;;7.83;7.03;;;12.70;99.90;;;;;;5076504;28;20229;-69
2022/05/30 06:05:31;;;;;;;11.10;7.03;;;12.70;99.90;;;;;;5078126;28;20240;-69
2022/05/30 06:08:00;;;;;;;9.47;6.97;;;12.70;99.90;;;;;;5083159;28;20616;-70
2022/05/30 06:10:27;;;;;;;9.77;7.53;;;12.70;99.90;;;;;;5085224;28;20243;-70
2022/05/30 06:12:54;;;;;;;10.33;7.70;;;12.70;99.90;;;;;;5077172;28;20298;-69
2022/05/30 06:15:24;;;;;;;7.70;6.70;;;12.70;99.90;;;;;;5079520;28;20293;-70
2022/05/30 06:17:51;;;;;;;11.00;7.07;;;12.80;99.90;;;;;;5082127;28;20258;-68
2022/05/30 06:20:19;;;;;;;8.70;6.17;;;12.80;99.90;;;;;;5086630;28;20204;-68
2022/05/30 06:22:46;;;;;;;6.60;5.77;;;12.80;99.90;;;;;;5077769;28;20209;-69
2022/05/30 06:25:13;;;;;;;7.90;6.00;;;12.80;99.90;;;;;;5068888;28;20243;-68
2022/05/30 06:27:40;;;;;;;7.80;6.33;;;12.80;99.90;;;;;;5071367;28;20632;-69
2022/05/30 06:30:08;;;;;;;7.87;6.60;;;12.90;99.90;;;;;;5071565;28;20834;-68
2022/05/30 06:32:36;;;;;;;7.13;6.37;;;12.90;99.90;;;;;;5077382;28;20581;-68
2022/05/30 06:35:04;;;;;;;6.23;5.40;;;13.00;99.90;;;;;;5073240;28;20633;-68
2022/05/30 06:37:31;;;;;;;6.20;5.43;;;13.10;99.90;;;;;;5077625;28;20211;-69
2022/05/30 06:39:58;;;;;;;6.57;4.77;;;13.00;99.90;;;;;;5070819;28;20209;-69
2022/05/30 06:42:26;;;;;;;5.80;5.07;;;13.10;99.90;;;;;;5073058;28;20201;-68
2022/05/30 06:44:53;;;;;;;9.07;5.17;;;13.10;99.90;;;;;;5064022;28;20573;-68
2022/05/30 06:47:20;;;;;;;5.47;4.23;;;13.10;99.90;;;;;;5072275;28;20208;-69
2022/05/30 06:49:48;;;;;;;5.93;4.70;;;13.10;99.90;;;;;;5069148;28;20296;-68
2022/05/30 06:52:15;;;;;;;5.13;4.20;;;13.10;99.90;;;;;;5067681;28;20328;-67
2022/05/30 06:54:42;;;;;;;9.27;5.73;;;13.00;99.90;;;;;;5069862;28;20208;-68
2022/05/30 06:59:54;;;;;;;8.73;5.10;;;13.10;99.90;;;;;;5068919;28;20218;-67
2022/05/30 07:02:21;;;;;;;6.87;4.20;;;13.10;99.90;;;;;;5073088;28;20608;-70
2022/05/30 07:04:49;;;;;;;7.57;4.73;;;13.10;99.90;;;;;;5070238;28;20205;-70
2022/05/30 07:07:16;;;;;;;7.50;5.40;;;13.10;99.90;;;;;;5067752;28;20215;-67
2022/05/30 07:09:43;;;;;;;8.20;5.67;;;13.10;99.90;;;;;;5067061;28;20742;-67
2022/05/30 07:12:11;;;;;;;6.10;3.90;;;13.20;99.90;;;;;;5069171;28;20723;-69
2022/05/30 07:14:38;;;;;;;4.27;3.27;;;13.20;99.90;;;;;;5072143;28;20269;-70
2022/05/30 07:17:07;;;;;;;3.30;3.00;;;13.20;99.90;;;;;;5071613;28;20284;-72
2022/05/30 07:19:34;;;;;;;5.03;3.30;;;13.20;99.90;;;;;;5068240;28;20205;-69
2022/05/30 07:22:03;;;;;;;3.93;2.93;;;13.20;99.90;;;;;;5072148;28;20265;-68
2022/05/30 07:24:30;;;;;;;7.50;4.03;;;13.30;99.90;;;;;;5074376;28;20201;-69
2022/05/30 07:26:57;;;;;;;3.70;3.40;;;13.30;99.90;;;;;;5072763;28;20647;-69
2022/05/30 07:29:26;;;;;;;4.57;3.73;;;13.30;99.90;;;;;;5074175;28;20225;-69
2022/05/30 07:31:58;;;;;;;4.27;3.37;;;13.40;99.90;;;;;;5074624;28;20654;-70
2022/05/30 07:34:25;;;;;;;5.67;3.80;;;13.40;99.90;;;;;;5080530;28;20204;-70
2022/05/30 07:36:52;;;;;;;5.17;3.63;;;13.40;99.90;;;;;;5070762;28;20205;-70
2022/05/30 07:39:21;;;;;;;4.13;3.27;;;13.40;99.90;;;;;;5074865;28;20616;-69
2022/05/30 07:41:48;;;;;;;4.80;3.70;;;13.40;99.90;;;;;;5072904;28;20212;-69
2022/05/30 07:44:15;;;;;;;6.70;4.00;;;13.40;99.90;;;;;;5074191;28;20292;-69
2022/05/30 07:46:43;;;;;;;3.63;3.33;;;13.40;99.90;;;;;;5081570;28;20213;-69
2022/05/30 07:49:10;;;;;;;4.70;3.13;;;13.40;99.90;;;;;;5078738;28;20209;-69
2022/05/30 07:51:37;;;;;;;4.17;3.60;;;13.40;99.90;;;;;;5084271;28;20257;-70
2022/05/30 07:54:04;;;;;;;3.73;3.30;;;13.40;99.90;;;;;;5090454;28;20638;-69
2022/05/30 07:56:33;;;;;;;10.20;3.17;;;13.40;99.90;;;;;;5081245;28;20724;-69
2022/05/30 07:59:01;;;;;;;6.60;4.40;;;13.40;99.90;;;;;;5081656;28;20213;-71
2022/05/30 08:01:28;;;;;;;5.23;3.97;;;13.40;99.90;;;;;;5074141;28;20777;-69
2022/05/30 08:03:56;;;;;;;4.20;3.80;;;13.40;99.90;;;;;;5081137;28;20215;-70
2022/05/30 08:06:25;;;;;;;6.63;3.60;;;13.40;99.90;;;;;;5076840;28;20775;-69
2022/05/30 08:08:53;;;;;;;6.50;3.77;;;13.40;99.90;;;;;;5085457;28;20603;-68
2022/05/30 08:11:20;;;;;;;4.50;3.60;;;13.40;99.90;;;;;;5077676;28;20205;-72
2022/05/30 08:13:49;;;;;;;4.57;3.67;;;13.40;99.90;;;;;;5080148;28;20231;-69
2022/05/30 08:16:19;;;;;;;6.37;4.27;;;13.50;99.90;;;;;;5071147;28;20659;-69
2022/05/30 08:18:46;;;;;;;5.20;3.83;;;13.50;99.90;;;;;;5078790;28;20233;-69
2022/05/30 08:21:16;;;;;;;5.27;3.10;;;13.50;99.90;;;;;;5083903;28;20674;-69
2022/05/30 08:23:43;;;;;;;5.47;4.00;;;13.50;99.90;;;;;;5082683;28;20221;-70
2022/05/30 08:26:13;;;;;;;5.30;4.63;;;13.50;99.90;;;;;;5083594;28;20686;-70
2022/05/30 08:28:40;;;;;;;3.90;3.37;;;13.50;99.90;;;;;;5079022;28;20324;-70
2022/05/30 08:31:09;;;;;;;4.57;3.77;;;13.60;99.90;;;;;;5082662;28;20240;-69
2022/05/30 08:33:36;;;;;;;4.37;3.90;;;13.70;99.90;;;;;;5083925;28;20236;-69
2022/05/30 08:36:05;;;;;;;6.67;3.70;;;13.80;99.90;;;;;;5084908;28;20206;-70
2022/05/30 08:38:34;;;;;;;3.70;3.40;;;13.80;99.90;;;;;;5078887;28;20716;-69
2022/05/30 08:43:49;;;;;;;4.27;3.87;;;13.90;99.90;;;;;;5073368;28;20203;-71
2022/05/30 08:46:37;;;;;;;3.83;3.40;;;13.90;99.90;;;;;;5077828;28;20190;-69
2022/05/30 08:49:17;;;;;;;5.03;3.73;;;13.90;99.90;;;;;;5079711;28;20193;-69
2022/05/30 08:52:11;;;;;;;3.73;3.23;;;14.00;99.90;;;;;;5077643;28;20209;-69
2022/05/30 08:54:52;;;;;;;4.23;3.33;;;14.00;99.90;;;;;;5074764;28;20223;-70
2022/05/30 08:57:32;;;;;;;4.80;3.10;;;14.00;99.90;;;;;;5074246;28;20292;-71
2022/05/30 09:00:09;;;;;;;3.77;3.47;;;14.00;99.90;;;;;;5081841;28;20851;-70
2022/05/30 09:02:43;;;;;;;7.33;3.43;;;14.10;99.90;;;;;;5073271;28;20251;-70
2022/05/30 09:05:14;;;;;;;3.80;3.40;;;14.20;99.90;;;;;;5078415;28;20633;-69
2022/05/30 09:07:46;;;;;;;5.07;3.20;;;14.20;99.90;;;;;;5081339;28;20689;-69
2022/05/30 09:10:21;;;;;;;3.57;3.20;;;14.30;99.90;;;;;;5081164;28;20213;-70
2022/05/30 09:12:52;;;;;;;5.13;3.10;;;14.40;99.90;;;;;;5077791;28;20248;-69
2022/05/30 09:15:24;;;;;;;4.27;3.13;;;14.40;99.90;;;;;;5075381;28;20324;-71
2022/05/30 09:17:58;;;;;;;5.03;3.63;;;14.50;99.90;;;;;;5081567;28;20201;-70
2022/05/30 09:20:25;;;;;;;5.17;3.10;;;14.50;99.90;;;;;;5077292;28;20224;-70
2022/05/30 09:22:53;;;;;;;5.90;3.57;;;14.60;99.90;;;;;;5073016;28;20209;-69
2022/05/30 09:28:07;;;;;;;2.90;2.60;;;14.60;99.90;;;;;;5074912;28;20236;-70
2022/05/30 09:30:42;;;;;;;3.10;2.63;;;14.60;99.90;;;;;;5065371;28;20229;-70
2022/05/30 09:33:25;;;;;;;3.13;2.50;;;14.60;99.90;;;;;;5073395;28;20208;-71
2022/05/30 09:36:12;;;;;;;3.83;3.03;;;14.60;99.90;;;;;;5079933;28;20315;-69
2022/05/30 09:38:41;;;;;;;4.37;3.20;;;14.70;99.90;;;;;;5065271;28;20206;-70
2022/05/30 09:41:14;;;;;;;4.20;3.13;;;14.60;99.90;;;;;;5062818;28;20591;-70
2022/05/30 09:43:45;;;;;;;3.10;2.60;;;14.60;99.90;;;;;;5072802;28;20228;-71
2022/05/30 09:46:25;;;;;;;3.40;2.47;;;14.50;99.90;;;;;;5077079;28;20220;-69
2022/05/30 09:49:02;;;;;;;4.10;2.50;;;14.60;99.90;;;;;;5085478;28;20272;-70
2022/05/30 09:51:39;;;;;;;4.10;2.50;;;14.60;99.90;;;;;;5083009;28;20536;-70
2022/05/30 09:54:09;;;;;;;2.53;2.23;;;14.60;99.90;;;;;;5080947;28;20282;-69
2022/05/30 09:56:40;;;;;;;2.00;1.80;;;14.70;99.90;;;;;;5087556;28;20213;-71
2022/05/30 09:59:13;;;;;;;3.77;2.40;;;14.80;99.90;;;;;;5081362;28;20228;-70
2022/05/30 10:01:41;;;;;;;4.07;2.10;;;14.90;99.90;;;;;;5078379;28;20198;-69
2022/05/30 10:04:30;;;;;;;2.00;1.90;;;15.00;99.90;;;;;;5081758;28;20210;-70
2022/05/30 10:07:08;;;;;;;2.50;2.20;;;15.00;99.90;;;;;;5067848;28;20584;-70
2022/05/30 10:09:39;;;;;;;6.50;2.33;;;15.10;99.90;;;;;;5068234;28;20266;-70
2022/05/30 10:12:07;;;;;;;2.40;2.20;;;15.20;99.90;;;;;;5076451;28;20260;-71
2022/05/30 10:14:39;;;;;;;2.47;2.10;;;15.30;99.90;;;;;;5080571;28;20291;-70
2022/05/30 10:17:15;;;;;;;2.30;2.10;;;15.50;99.90;;;;;;5072032;28;20216;-69
2022/05/30 10:19:49;;;;;;;3.40;2.40;;;15.60;99.90;;;;;;5077306;28;20208;-69
2022/05/30 10:28:27;;;;;;;2.37;2.00;;;16.10;99.90;;;;;;5068316;28;20312;-70
2022/05/30 10:31:10;;;;;;;2.63;1.87;;;16.30;99.90;;;;;;5078084;28;20303;-69
2022/05/30 10:34:00;;;;;;;4.87;3.77;;;16.50;99.90;;;;;;5087283;28;20692;-69
2022/05/30 10:36:36;;;;;;;2.93;2.30;;;16.70;99.90;;;;;;5068347;28;20212;-69
2022/05/30 10:39:13;;;;;;;3.97;2.50;;;16.90;99.90;;;;;;5078109;28;20296;-69
2022/05/30 10:41:48;;;;;;;3.58;1.95;;;17.10;99.90;;;;;;5079335;28;20197;-68
2022/05/30 10:44:21;;;;;;;4.10;2.92;;;17.30;99.90;;;;;;5068708;28;20227;-70
2022/05/30 10:46:58;;;;;;;5.13;3.37;;;17.40;99.90;;;;;;5078626;28;20645;-70
2022/05/30 10:49:29;;;;;;;3.13;2.10;;;17.40;99.90;;;;;;5081957;28;20612;-69
2022/05/30 10:52:03;;;;;;;2.17;1.98;;;17.30;99.90;;;;;;5079859;28;20206;-69
2022/05/30 10:54:34;;;;;;;3.67;2.30;;;17.40;99.90;;;;;;5083032;28;20218;-69
2022/05/30 10:57:13;;;;;;;4.28;2.05;;;17.30;99.90;;;;;;5090348;28;20197;-69
2022/05/30 10:59:46;;;;;;;2.60;2.25;;;17.20;99.90;;;;;;5082420;28;20737;-69
2022/05/30 11:02:19;;;;;;;2.28;2.08;;;17.20;99.90;;;;;;5081827;28;20233;-69
2022/05/30 11:04:51;;;;;;;4.75;2.28;;;17.20;99.90;;;;;;5083173;28;20210;-70
2022/05/30 11:07:37;;;;;;;2.65;2.03;;;17.10;99.90;;;;;;5088155;28;20205;-74
2022/05/30 11:10:13;;;;;;;2.33;2.13;;;17.00;99.90;;;;;;5071611;28;20239;-70
2022/05/30 11:12:44;;;;;;;3.13;2.47;;;16.90;99.90;;;;;;5082884;28;20203;-69
2022/05/30 11:15:20;;;;;;;2.85;2.08;;;16.80;99.90;;;;;;5075279;28;20610;-71
2022/05/30 11:17:52;;;;;;;3.80;3.20;;;16.60;99.90;;;;;;5076192;28;20296;-70
2022/05/30 11:20:23;;;;;;;2.83;2.50;;;16.50;99.90;;;;;;5082066;28;20209;-68
2022/05/30 11:22:53;;;;;;;3.00;2.70;;;16.30;99.90;;;;;;5085055;28;20200;-69
2022/05/30 11:25:31;;;;;;;3.17;2.88;;;16.30;99.90;;;;;;5078505;28;20192;-70
2022/05/30 11:28:06;;;;;;;2.90;2.60;;;16.30;99.90;;;;;;5076298;28;20690;-69
2022/05/30 11:30:44;;;;;;;4.67;3.80;;;16.30;99.90;;;;;;5081933;28;20259;-71
2022/05/30 11:33:35;;;;;;;3.13;2.83;;;16.40;99.90;;;;;;5080280;28;20216;-69
2022/05/30 11:36:14;;;;;;;3.40;2.70;;;16.60;99.90;;;;;;5064218;28;20604;-67
2022/05/30 11:38:57;;;;;;;2.60;2.40;;;16.80;99.90;;;;;;5070883;28;20247;-73
2022/05/30 11:41:36;;;;;;;2.60;2.00;;;16.90;99.90;;;;;;5069756;28;20199;-69
2022/05/30 11:44:23;;;;;;;2.30;1.92;;;16.90;99.90;;;;;;5070700;28;20197;-71
2022/05/30 11:47:03;;;;;;;2.70;1.73;;;16.80;99.90;;;;;;5071379;28;20677;-71
2022/05/30 11:49:36;;;;;;;3.20;2.37;;;16.90;99.90;;;;;;5072746;28;20259;-69
2022/05/30 11:52:14;;;;;;;3.80;2.13;;;16.70;99.90;;;;;;5066502;28;20197;-70
2022/05/30 11:55:06;;;;;;;2.77;2.33;;;16.40;99.90;;;;;;5072100;28;20274;-69
2022/05/30 11:57:41;;;;;;;2.10;1.97;;;16.30;99.90;;;;;;5073645;28;20292;-70
2022/05/30 12:00:14;;;;;;;1.97;1.83;;;16.20;99.90;;;;;;5064397;28;20428;-69
2022/05/30 12:03:01;;;;;;;3.90;3.03;;;16.10;99.90;;;;;;5079550;28;20193;-69
2022/05/30 12:06:09;;;;;;;3.40;2.80;;;16.10;99.90;;;;;;5086093;28;20283;-69
2022/05/30 12:08:59;;;;;;;2.30;1.80;;;16.10;99.90;;;;;;5083709;28;20299;-69
2022/05/30 12:11:47;;;;;;;4.30;2.23;;;16.10;99.90;;;;;;5067997;28;20208;-71
2022/05/30 12:14:35;;;;;;;4.43;3.23;;;16.00;99.90;;;;;;5071985;28;20216;-69
2022/05/30 12:17:20;;;;;;;2.53;2.33;;;16.00;99.90;;;;;;5086564;28;20250;-70
2022/05/30 12:25:48;;;;;;;1.93;1.83;;;16.60;99.90;;;;;;5079373;28;20208;-70
2022/05/30 12:28:49;;;;;;;3.22;2.00;;;16.70;99.90;;;;;;5077217;28;20198;-71
2022/05/30 12:31:38;;;;;;;2.87;2.40;;;16.70;99.90;;;;;;5078851;28;20243;-69
2022/05/30 12:34:06;;;;;;;2.57;2.37;;;16.60;99.90;;;;;;5086784;28;20324;-69
2022/05/30 12:36:46;;;;;;;4.00;2.20;;;16.50;99.90;;;;;;5081967;28;20240;-69
2022/05/30 12:39:34;;;;;;;3.77;2.47;;;16.40;99.90;;;;;;5069126;28;20235;-69
2022/05/30 12:42:07;;;;;;;2.80;2.50;;;16.40;99.90;;;;;;5065999;28;20216;-69
2022/05/30 12:44:54;;;;;;;2.77;2.57;;;16.40;99.90;;;;;;5072703;28;20197;-69
2022/05/30 12:47:30;;;;;;;2.23;2.10;;;16.50;99.90;;;;;;5080485;28;20707;-70
2022/05/30 12:50:36;;;;;;;6.23;2.30;;;16.50;99.90;;;;;;5073809;28;20258;-69
2022/05/30 12:53:05;;;;;;;2.57;2.37;;;16.50;99.90;;;;;;5069802;28;20263;-69
2022/05/30 12:55:35;;;;;;;2.47;2.27;;;16.40;99.90;;;;;;5068744;28;20240;-68
2022/05/30 12:58:03;;;;;;;2.80;2.58;;;16.30;99.90;;;;;;5066340;28;20201;-69
2022/05/30 13:00:51;;;;;;;2.67;2.03;;;16.10;99.90;;;;;;5075697;28;20243;-69
2022/05/30 13:04:02;;;;;;;2.93;2.27;;;16.00;99.90;;;;;;5068364;28;20205;-69
2022/05/30 13:06:31;;;;;;;2.97;2.53;;;15.80;99.90;;;;;;5066361;28;20193;-69
2022/05/30 13:09:15;;;;;;;3.20;2.90;;;15.60;99.90;;;;;;5071336;28;20204;-69
2022/05/30 13:12:20;;;;;;;5.23;2.70;;;15.50;99.90;;;;;;5078998;28;20202;-69
2022/05/30 13:15:11;;;;;;;4.47;2.07;;;15.60;99.90;;;;;;5074347;28;20229;-69
2022/05/30 13:18:01;;;;;;;4.70;2.70;;;15.60;99.90;;;;;;5072746;28;20213;-69
2022/05/30 13:20:36;;;;;;;5.50;2.30;;;15.60;99.90;;;;;;5055440;28;20255;-69
2022/05/30 13:23:04;;;;;;;3.93;2.50;;;15.50;99.90;;;;;;5064500;28;20227;-70
2022/05/30 13:25:33;;;;;;;2.50;2.30;;;15.40;99.90;;;;;;5076411;28;20270;-69
2022/05/30 13:28:06;;;;;;;3.70;3.30;;;15.30;99.90;;;;;;5070815;28;20629;-69
2022/05/30 13:30:35;;;;;;;4.43;2.97;;;15.20;99.90;;;;;;5071873;28;20294;-68
2022/05/30 13:33:11;;;;;;;3.37;3.00;;;15.10;99.90;;;;;;5066797;28;20218;-69
2022/05/30 13:35:40;;;;;;;3.00;2.70;;;15.00;99.90;;;;;;5072740;28;20229;-68
2022/05/30 13:38:11;;;;;;;5.00;2.90;;;14.80;99.90;;;;;;5067536;28;20201;-68